Island Adventure — WDG9106 — position and weather

sailwx.info

Track history (hours):
 
Tides and Currents Weather Stations Pressure Air Temp Water Temp Dewpoint Dewpoint Depression Visibility Wind Speed Wind Dir Waves Ship Positions

Island Adventure

Owner: Superboat Inc, Ventura, CA. More information available from US FCC via Universal Licensing System and Coast Guard Vessel Documentation Center.

Last reported at 2018-Jan-08 01:20 UTC. Time now 2018-Feb-19 02:07 UTC.
Position N 34°15' W 119°16'.
Warning: this ship's position is 42 days out of date.

Length 20 m; draft 2.4 m.

Type: Passenger vessel. MMSI: 366899260.

Date/timePositionNaut miles runAvg speedWind from/ knotsBaromVisibWave heightAir tempDewpointWater temp
2018-Jan-08 01:20N 34°15' W 119°16'0 0.0
2018-Jan-08 01:00N 34°15' W 119°16'2 4.4
2018-Jan-08 00:30N 34°14' W 119°18'1019.0
2018-Jan-08 00:00N 34°07' W 119°27'714.0
2018-Jan-07 23:31N 34°03' W 119°33'2 4.4
2018-Jan-07 23:00N 34°03' W 119°36'5 9.4
2018-Jan-07 22:30N 34°01' W 119°41'0 0.2
2018-Jan-07 22:00N 34°01' W 119°41'0 0.1
2018-Jan-07 21:30N 34°01' W 119°41'0 0.1
2018-Jan-07 21:00N 34°01' W 119°41'0 0.0
2018-Jan-07 20:30N 34°01' W 119°41'0 0.1
2018-Jan-07 20:00N 34°01' W 119°41'0 0.0
2018-Jan-07 19:30N 34°01' W 119°41'3 6.4
2018-Jan-07 19:00N 34°03' W 119°38'4 7.3
2018-Jan-07 18:30N 34°03' W 119°33'4 8.5
2018-Jan-07 18:00N 34°06' W 119°30'1019.2
2018-Jan-07 17:29N 34°12' W 119°21'5 9.1
2018-Jan-07 16:59N 34°15' W 119°16'0 0.0
2018-Jan-07 16:30N 34°15' W 119°16'0 0.0
2018-Jan-07 15:59N 34°15' W 119°16'0 0.0
2018-Jan-07 15:30N 34°15' W 119°16'0 0.0
2018-Jan-07 15:00N 34°15' W 119°16'0 0.0
2018-Jan-07 14:30N 34°15' W 119°16'0 0.0
2018-Jan-07 14:00N 34°15' W 119°16'0 0.0
2018-Jan-07 13:29N 34°15' W 119°16'0 0.0
2018-Jan-07 12:54N 34°15' W 119°16'0 0.0
2018-Jan-07 12:30N 34°15' W 119°16'0 0.0
2018-Jan-07 11:58N 34°15' W 119°16'0 0.0
2018-Jan-07 11:30N 34°15' W 119°16'0 0.0
2018-Jan-07 10:59N 34°15' W 119°16'0 0.0
2018-Jan-07 10:28N 34°15' W 119°16'0 0.0
2018-Jan-07 10:00N 34°15' W 119°16'0 0.0
2018-Jan-07 09:28N 34°15' W 119°16'0 0.0
2018-Jan-07 08:58N 34°15' W 119°16'0 0.0
2018-Jan-07 08:30N 34°15' W 119°16'0 0.0
2018-Jan-07 07:56N 34°15' W 119°16'0 0.0
2018-Jan-07 07:28N 34°15' W 119°16'0 0.0
2018-Jan-07 06:59N 34°15' W 119°16'0 0.0
2018-Jan-07 06:30N 34°15' W 119°16'0 0.0
2018-Jan-07 05:56N 34°15' W 119°16'0 0.0
2018-Jan-07 05:26N 34°15' W 119°16'0 0.0
2018-Jan-07 04:59N 34°15' W 119°16'0 0.0
2018-Jan-07 04:29N 34°15' W 119°16'0 0.0
2018-Jan-07 03:59N 34°15' W 119°16'0 0.0
2018-Jan-07 03:30N 34°15' W 119°16'0 0.0
2018-Jan-07 03:00N 34°15' W 119°16'0 0.0
2018-Jan-07 02:30N 34°15' W 119°16'0 0.0
2018-Jan-07 01:59N 34°15' W 119°16'0 0.0
2018-Jan-07 01:30N 34°15' W 119°16'0 0.3
2018-Jan-07 00:30N 34°15' W 119°16'918.1
2018-Jan-07 00:00N 34°09' W 119°25'919.0
2018-Jan-06 23:30N 34°03' W 119°33'0 0.4
2018-Jan-06 23:00N 34°03' W 119°33'713.3
2018-Jan-06 22:30N 34°01' W 119°41'0 0.0
2018-Jan-06 22:00N 34°01' W 119°41'0 0.0
2018-Jan-06 21:29N 34°01' W 119°41'0 0.0
2018-Jan-06 21:00N 34°01' W 119°41'0 0.0
2018-Jan-06 20:30N 34°01' W 119°41'0 0.0
2018-Jan-06 20:00N 34°01' W 119°41'0 0.0
2018-Jan-06 19:30N 34°01' W 119°41'1 1.9
2018-Jan-06 19:00N 34°02' W 119°40'611.5
2018-Jan-06 18:30N 34°03' W 119°33'511.0
2018-Jan-06 18:00N 34°07' W 119°29'815.5
2018-Jan-06 17:31N 34°12' W 119°21'510.7
2018-Jan-06 17:00N 34°15' W 119°16'0 0.0
2018-Jan-06 16:30N 34°15' W 119°16'0 0.1
2018-Jan-06 16:00N 34°15' W 119°16'0 0.1
2018-Jan-06 15:30N 34°15' W 119°16'0 0.0
2018-Jan-06 15:00N 34°15' W 119°16'0 0.0
2018-Jan-06 14:29N 34°15' W 119°16'0 0.0
2018-Jan-06 14:00N 34°15' W 119°16'0 0.0
2018-Jan-06 13:28N 34°15' W 119°16'0 0.0
2018-Jan-06 12:55N 34°15' W 119°16'0 0.0
2018-Jan-06 12:28N 34°15' W 119°16'0 0.0
2018-Jan-06 12:00N 34°15' W 119°16'0 0.0
2018-Jan-06 11:30N 34°15' W 119°16'0 0.0
2018-Jan-06 10:58N 34°15' W 119°16'0 0.0
2018-Jan-06 10:29N 34°15' W 119°16'0 0.0
2018-Jan-06 09:59N 34°15' W 119°16'0 0.0
2018-Jan-06 09:30N 34°15' W 119°16'0 0.0
2018-Jan-06 09:00N 34°15' W 119°16'0 0.0
2018-Jan-06 08:30N 34°15' W 119°16'0 0.0
2018-Jan-06 08:00N 34°15' W 119°16'0 0.0
2018-Jan-06 07:25N 34°15' W 119°16'0 0.0
2018-Jan-06 06:58N 34°15' W 119°16'0 0.0
2018-Jan-06 06:30N 34°15' W 119°16'0 0.0
2018-Jan-06 06:00N 34°15' W 119°16'0 0.0
2018-Jan-06 05:30N 34°15' W 119°16'0 0.0
2018-Jan-06 04:59N 34°15' W 119°16'0 0.0
2018-Jan-06 04:30N 34°15' W 119°16'0 0.0
2018-Jan-06 04:00N 34°15' W 119°16'0 0.0
2018-Jan-06 03:30N 34°15' W 119°16'0 0.0
2018-Jan-06 03:00N 34°15' W 119°16'0 0.0
2018-Jan-06 02:28N 34°15' W 119°16'0 0.0
2018-Jan-06 02:00N 34°15' W 119°16'0 0.0
2018-Jan-06 01:30N 34°15' W 119°16'0 0.0
2018-Jan-06 01:00N 34°15' W 119°16'610.7
2018-Jan-06 00:27N 34°11' W 119°21'818.6
2018-Jan-06 00:00N 34°05' W 119°29'4 8.3
2018-Jan-05 23:30N 34°03' W 119°33'2 3.2
2018-Jan-05 23:00N 34°03' W 119°35'611.2
2018-Jan-05 22:30N 34°01' W 119°41'0 0.0
2018-Jan-05 21:59N 34°01' W 119°41'0 0.0
2018-Jan-05 21:30N 34°01' W 119°41'0 0.0
2018-Jan-05 20:59N 34°01' W 119°41'0 0.0
2018-Jan-05 20:30N 34°01' W 119°41'0 0.0
2018-Jan-05 20:00N 34°01' W 119°41'0 0.1
2018-Jan-05 19:30N 34°01' W 119°41'713.3
2018-Jan-05 19:00N 34°03' W 119°33'4 7.3
2018-Jan-05 18:30N 34°04' W 119°29'815.3
2018-Jan-05 17:59N 34°08' W 119°21'4 9.2
2018-Jan-05 17:30N 34°13' W 119°19'3 6.5
2018-Jan-05 16:58N 34°15' W 119°16'0 0.0
2018-Jan-05 16:29N 34°15' W 119°16'0 0.0
2018-Jan-05 16:00N 34°15' W 119°16'0 0.0
2018-Jan-05 15:30N 34°15' W 119°16'0 0.0
2018-Jan-05 15:00N 34°15' W 119°16'0 0.0
2018-Jan-05 14:30N 34°15' W 119°16'0 0.0
2018-Jan-05 14:00N 34°15' W 119°16'0 0.0
2018-Jan-05 13:29N 34°15' W 119°16'0 0.0
2018-Jan-05 12:57N 34°15' W 119°16'0 0.0
2018-Jan-05 12:30N 34°15' W 119°16'0 0.0
2018-Jan-05 12:00N 34°15' W 119°16'0 0.0
2018-Jan-05 11:30N 34°15' W 119°16'0 0.0
2018-Jan-05 10:51N 34°15' W 119°16'0 0.0
2018-Jan-05 10:30N 34°15' W 119°16'0 0.0
2018-Jan-05 10:01N 34°15' W 119°16'0 0.0
2018-Jan-05 09:30N 34°15' W 119°16'0 0.0
2018-Jan-05 09:01N 34°15' W 119°16'0 0.0
2018-Jan-05 08:31N 34°15' W 119°16'0 0.0
2018-Jan-05 08:00N 34°15' W 119°16'0 0.0
2018-Jan-05 07:30N 34°15' W 119°16'0 0.0
2018-Jan-05 07:00N 34°15' W 119°16'0 0.0
2018-Jan-05 06:29N 34°15' W 119°16'0 0.0
2018-Jan-05 05:58N 34°15' W 119°16'0 0.0
2018-Jan-05 05:30N 34°15' W 119°16'0 0.0
2018-Jan-05 05:01N 34°15' W 119°16'0 0.0
2018-Jan-05 04:30N 34°15' W 119°16'0 0.0
2018-Jan-05 04:00N 34°15' W 119°16'0 0.0
2018-Jan-05 03:30N 34°15' W 119°16'0 0.0
2018-Jan-05 02:59N 34°15' W 119°16'0 0.0
2018-Jan-05 02:30N 34°15' W 119°16'0 0.0
2018-Jan-05 02:00N 34°15' W 119°16'0 0.0
2018-Jan-05 01:30N 34°15' W 119°16'0 0.0
2018-Jan-05 01:00N 34°15' W 119°16'0 0.0
2018-Jan-05 00:27N 34°15' W 119°16'0 0.0
2018-Jan-04 23:57N 34°15' W 119°16'0 0.0
2018-Jan-04 23:27N 34°15' W 119°16'0 0.0
2018-Jan-04 22:53N 34°15' W 119°16'0 0.0
2018-Jan-04 22:30N 34°15' W 119°16'0 0.0
2018-Jan-04 21:57N 34°15' W 119°16'0 0.0
2018-Jan-04 21:26N 34°15' W 119°16'0 0.0
2018-Jan-04 21:00N 34°15' W 119°16'0 0.0
2018-Jan-04 20:30N 34°15' W 119°16'0 0.0
2018-Jan-04 20:00N 34°15' W 119°16'0 0.0
2018-Jan-04 19:29N 34°15' W 119°16'0 0.0
2018-Jan-04 19:00N 34°15' W 119°16'0 0.0
2018-Jan-04 18:30N 34°15' W 119°16'0 0.0
2018-Jan-04 17:59N 34°15' W 119°16'0 0.0
2018-Jan-04 17:29N 34°15' W 119°16'0 0.0
2018-Jan-04 16:59N 34°15' W 119°16'0 0.0
2018-Jan-04 16:29N 34°15' W 119°16'0 0.0
2018-Jan-04 15:59N 34°15' W 119°16'0 0.0
2018-Jan-04 15:29N 34°15' W 119°16'0 0.0
2018-Jan-04 14:59N 34°15' W 119°16'0 0.0
2018-Jan-04 14:30N 34°15' W 119°16'0 0.0
2018-Jan-04 14:00N 34°15' W 119°16'0 0.0
2018-Jan-04 13:29N 34°15' W 119°16'0 0.0
2018-Jan-04 13:01N 34°15' W 119°16'0 0.0
2018-Jan-04 12:29N 34°15' W 119°16'0 0.0
2018-Jan-04 11:57N 34°15' W 119°16'0 0.0
2018-Jan-04 11:29N 34°15' W 119°16'0 0.0
2018-Jan-04 11:00N 34°15' W 119°16'0 0.0
2018-Jan-04 10:27N 34°15' W 119°16'0 0.0
2018-Jan-04 09:58N 34°15' W 119°16'0 0.0
2018-Jan-04 09:30N 34°15' W 119°16'0 0.0
2018-Jan-04 08:59N 34°15' W 119°16'0 0.0
2018-Jan-04 08:27N 34°15' W 119°16'0 0.0
2018-Jan-04 08:00N 34°15' W 119°16'0 0.0
2018-Jan-04 07:22N 34°15' W 119°16'0 0.0
2018-Jan-04 07:00N 34°15' W 119°16'0 0.0
2018-Jan-04 06:27N 34°15' W 119°16'0 0.0
2018-Jan-04 05:58N 34°15' W 119°16'0 0.0
2018-Jan-04 05:30N 34°15' W 119°16'0 0.0
2018-Jan-04 05:00N 34°15' W 119°16'0 0.0
2018-Jan-04 04:29N 34°15' W 119°16'0 0.0
2018-Jan-04 04:00N 34°15' W 119°16'0 0.0
2018-Jan-04 03:30N 34°15' W 119°16'0 0.0
2018-Jan-04 03:00N 34°15' W 119°16'0 0.0
2018-Jan-04 02:30N 34°15' W 119°16'0 0.0
2018-Jan-04 02:00N 34°15' W 119°16'0 0.0
2018-Jan-04 01:29N 34°15' W 119°16'0 0.2
2018-Jan-04 01:00N 34°15' W 119°16'815.4
2018-Jan-04 00:30N 34°11' W 119°24'815.0
2018-Jan-04 00:00N 34°07' W 119°31'3 6.1
2018-Jan-03 23:30N 34°04' W 119°33'1 1.7
2018-Jan-03 23:00N 34°03' W 119°33'713.3
2018-Jan-03 22:30N 34°01' W 119°41'0 0.1
2018-Jan-03 22:00N 34°01' W 119°41'0 0.0
2018-Jan-03 21:30N 34°01' W 119°41'1 1.5
2018-Jan-03 20:58N 34°02' W 119°40'0 0.3
2018-Jan-03 20:28N 34°02' W 119°41'0 0.3
2018-Jan-03 20:00N 34°02' W 119°41'0 0.4
2018-Jan-03 19:30N 34°02' W 119°41'510.0
2018-Jan-03 19:00N 34°04' W 119°35'2 3.7
2018-Jan-03 18:30N 34°03' W 119°33'510.1
2018-Jan-03 18:00N 34°07' W 119°29'816.4
2018-Jan-03 17:31N 34°12' W 119°21'510.4
2018-Jan-03 17:00N 34°15' W 119°16'0 0.0
2018-Jan-03 16:29N 34°15' W 119°16'0 0.0
2018-Jan-03 16:00N 34°15' W 119°16'0 0.0
2018-Jan-03 15:29N 34°15' W 119°16'0 0.0
2018-Jan-03 15:00N 34°15' W 119°16'0 0.0
2018-Jan-03 14:31N 34°15' W 119°16'0 0.0
2018-Jan-03 14:00N 34°15' W 119°16'0 0.0
2018-Jan-03 13:30N 34°15' W 119°16'0 0.0
2018-Jan-03 13:00N 34°15' W 119°16'0 0.0
2018-Jan-03 12:31N 34°15' W 119°16'0 0.0
2018-Jan-03 12:01N 34°15' W 119°16'0 0.0
2018-Jan-03 11:30N 34°15' W 119°16'0 0.0
2018-Jan-03 11:00N 34°15' W 119°16'0 0.0
2018-Jan-03 10:31N 34°15' W 119°16'0 0.0
2018-Jan-03 09:59N 34°15' W 119°16'0 0.0
2018-Jan-03 09:27N 34°15' W 119°16'0 0.0
2018-Jan-03 08:59N 34°15' W 119°16'0 0.0
2018-Jan-03 08:30N 34°15' W 119°16'0 0.0
2018-Jan-03 07:57N 34°15' W 119°16'0 0.0
2018-Jan-03 07:31N 34°15' W 119°16'0 0.0
2018-Jan-03 07:00N 34°15' W 119°16'0 0.0
2018-Jan-03 06:31N 34°15' W 119°16'0 0.0
2018-Jan-03 06:00N 34°15' W 119°16'0 0.0
2018-Jan-03 05:28N 34°15' W 119°16'0 0.0
2018-Jan-03 05:00N 34°15' W 119°16'0 0.0
2018-Jan-03 04:30N 34°15' W 119°16'0 0.0
2018-Jan-03 03:59N 34°15' W 119°16'0 0.0
2018-Jan-03 03:30N 34°15' W 119°16'0 0.0
2018-Jan-03 03:01N 34°15' W 119°16'0 0.0
2018-Jan-03 02:30N 34°15' W 119°16'0 0.0
2018-Jan-03 02:01N 34°15' W 119°16'0 0.0
2018-Jan-03 01:31N 34°15' W 119°16'0 0.0
2018-Jan-03 01:00N 34°15' W 119°16'2 3.2
2018-Jan-03 00:30N 34°14' W 119°17'918.1
2018-Jan-03 00:00N 34°08' W 119°26'816.1
2018-Jan-02 23:30N 34°03' W 119°33'2 4.1
2018-Jan-02 23:00N 34°03' W 119°36'5 9.1
2018-Jan-02 22:29N 34°01' W 119°41'0 0.1
2018-Jan-02 22:00N 34°01' W 119°41'0 0.0
2018-Jan-02 21:30N 34°01' W 119°41'0 0.0
2018-Jan-02 21:00N 34°01' W 119°41'0 0.0
2018-Jan-02 20:30N 34°01' W 119°41'0 0.0
2018-Jan-02 20:00N 34°01' W 119°41'0 0.0
2018-Jan-02 19:30N 34°01' W 119°41'0 0.9
2018-Jan-02 19:01N 34°01' W 119°41'612.3
2018-Jan-02 18:30N 34°03' W 119°33'916.0
2018-Jan-02 17:58N 34°09' W 119°25'611.9
2018-Jan-02 17:30N 34°12' W 119°20'4 8.6
2018-Jan-02 16:59N 34°15' W 119°16'0 0.0
2018-Jan-02 16:30N 34°15' W 119°16'0 0.0
2018-Jan-02 15:58N 34°15' W 119°16'0 0.0
2018-Jan-02 15:31N 34°15' W 119°16'0 0.0
2018-Jan-02 15:00N 34°15' W 119°16'0 0.0
2018-Jan-02 14:30N 34°15' W 119°16'0 0.0
2018-Jan-02 14:00N 34°15' W 119°16'0 0.0
2018-Jan-02 13:30N 34°15' W 119°16'0 0.0
2018-Jan-02 13:00N 34°15' W 119°16'0 0.0
2018-Jan-02 12:30N 34°15' W 119°16'0 0.0
2018-Jan-02 11:59N 34°15' W 119°16'0 0.0
2018-Jan-02 11:30N 34°15' W 119°16'0 0.0
2018-Jan-02 11:00N 34°15' W 119°16'0 0.0
2018-Jan-02 10:30N 34°15' W 119°16'0 0.0
2018-Jan-02 10:00N 34°15' W 119°16'0 0.0
2018-Jan-02 09:31N 34°15' W 119°16'0 0.0
2018-Jan-02 08:30N 34°15' W 119°16'0 0.0
2018-Jan-02 08:00N 34°15' W 119°16'0 0.0
2018-Jan-02 07:30N 34°15' W 119°16'0 0.0
2018-Jan-02 07:00N 34°15' W 119°16'0 0.0
2018-Jan-02 06:29N 34°15' W 119°16'0 0.0
2018-Jan-02 05:58N 34°15' W 119°16'0 0.0
2018-Jan-02 05:30N 34°15' W 119°16'0 0.0
2018-Jan-02 04:30N 34°15' W 119°16'0 0.0
2018-Jan-02 03:58N 34°15' W 119°16'0 0.0
2018-Jan-02 03:30N 34°15' W 119°16'0 0.0
2018-Jan-02 03:00N 34°15' W 119°16'0 0.0
2018-Jan-02 02:30N 34°15' W 119°16'0 0.0
2018-Jan-02 02:00N 34°15' W 119°16'0 0.0
2018-Jan-02 01:30N 34°15' W 119°16'0 0.1
2018-Jan-02 01:00N 34°15' W 119°16'713.8
2018-Jan-02 00:30N 34°11' W 119°23'918.0
2018-Jan-02 00:00N 34°05' W 119°31'3 5.7
2018-Jan-01 23:30N 34°03' W 119°33'2 4.8
2018-Jan-01 23:00N 34°03' W 119°36'4 8.7
2018-Jan-01 22:30N 34°01' W 119°41'815.6
2018-Jan-01 22:00N 34°05' W 119°49'2 4.0
2018-Jan-01 21:27N 34°04' W 119°52'2 4.7
2018-Jan-01 20:58N 34°03' W 119°49'2 4.2
2018-Jan-01 20:30N 34°03' W 119°47'2 4.7
2018-Jan-01 20:00N 34°03' W 119°44'2 4.0
2018-Jan-01 19:30N 34°02' W 119°42'3 5.2
2018-Jan-01 19:00N 34°01' W 119°39'5 9.5
2018-Jan-01 18:30N 34°03' W 119°33'611.4
2018-Jan-01 18:00N 34°05' W 119°27'714.8
2018-Jan-01 17:30N 34°11' W 119°22'6 2.3
2018-Jan-01 15:00N 34°15' W 119°16'0 0.0
2018-Jan-01 14:30N 34°15' W 119°16'0 0.0
2018-Jan-01 14:01N 34°15' W 119°16'0 0.0
2018-Jan-01 13:30N 34°15' W 119°16'0 0.0
2018-Jan-01 13:00N 34°15' W 119°16'0 0.0
2018-Jan-01 12:00N 34°15' W 119°16'0 0.0
2018-Jan-01 11:30N 34°15' W 119°16'0 0.0
2018-Jan-01 11:00N 34°15' W 119°16'0 0.0
2018-Jan-01 10:30N 34°15' W 119°16'0 0.0
2018-Jan-01 10:01N 34°15' W 119°16'0 0.0
2018-Jan-01 09:30N 34°15' W 119°16'0 0.0
2018-Jan-01 08:30N 34°15' W 119°16'0 0.0
2018-Jan-01 08:01N 34°15' W 119°16'0 0.0
2018-Jan-01 07:30N 34°15' W 119°16'0 0.0
2018-Jan-01 07:01N 34°15' W 119°16'0 0.0
2018-Jan-01 06:00N 34°15' W 119°16'0 0.0
2018-Jan-01 05:30N 34°15' W 119°16'0 0.0
2018-Jan-01 05:00N 34°15' W 119°16'0 0.0
2018-Jan-01 04:00N 34°15' W 119°16'0 0.0
2018-Jan-01 03:29N 34°15' W 119°16'0 0.0
2018-Jan-01 03:00N 34°15' W 119°16'0 0.0
2018-Jan-01 02:30N 34°15' W 119°16'0 0.0
2018-Jan-01 02:00N 34°15' W 119°16'0 0.0
2018-Jan-01 01:30N 34°15' W 119°16'0 0.0
2018-Jan-01 00:30N 34°15' W 119°16'19 5.3
2017-Dec-31 21:00N 34°03' W 119°33'0 0.0
2017-Dec-31 20:30N 34°03' W 119°33'0 0.1
2017-Dec-31 20:00N 34°03' W 119°33'3 5.9
2017-Dec-31 19:30N 34°06' W 119°33'4 8.6
2017-Dec-31 19:00N 34°07' W 119°28'918.1
2017-Dec-31 18:30N 34°12' W 119°19'4 7.4
2017-Dec-31 18:00N 34°15' W 119°16'0 0.0
2017-Dec-31 17:30N 34°15' W 119°16'0 0.0
2017-Dec-31 17:00N 34°15' W 119°16'0 0.0
2017-Dec-31 16:30N 34°15' W 119°16'0 0.0
2017-Dec-31 16:00N 34°15' W 119°16'0 0.0
2017-Dec-31 15:30N 34°15' W 119°16'0 0.0
2017-Dec-31 15:00N 34°15' W 119°16'0 0.0
2017-Dec-31 14:30N 34°15' W 119°16'0 0.0
2017-Dec-31 14:00N 34°15' W 119°16'0 0.0
2017-Dec-31 13:30N 34°15' W 119°16'0 0.0
2017-Dec-31 13:00N 34°15' W 119°16'0 0.0
2017-Dec-31 12:30N 34°15' W 119°16'0 0.0
2017-Dec-31 12:00N 34°15' W 119°16'0 0.0
2017-Dec-31 11:30N 34°15' W 119°16'0 0.0
2017-Dec-31 11:00N 34°15' W 119°16'0 0.0
2017-Dec-31 10:30N 34°15' W 119°16'0 0.0
2017-Dec-31 10:00N 34°15' W 119°16'0 0.0
2017-Dec-31 09:30N 34°15' W 119°16'0 0.0
2017-Dec-31 09:00N 34°15' W 119°16'0 0.0
2017-Dec-31 08:30N 34°15' W 119°16'0 0.0
2017-Dec-31 08:00N 34°15' W 119°16'0 0.0
2017-Dec-31 07:30N 34°15' W 119°16'0 0.0
2017-Dec-31 07:00N 34°15' W 119°16'0 0.0
2017-Dec-31 06:30N 34°15' W 119°16'0 0.0
2017-Dec-31 06:00N 34°15' W 119°16'0 0.0
2017-Dec-31 05:30N 34°15' W 119°16'0 0.0
2017-Dec-31 05:00N 34°15' W 119°16'0 0.0
2017-Dec-31 04:30N 34°15' W 119°16'0 0.0
2017-Dec-31 04:00N 34°15' W 119°16'0 0.0
2017-Dec-31 03:30N 34°15' W 119°16'0 0.0
2017-Dec-31 03:00N 34°15' W 119°16'0 0.0
2017-Dec-31 02:30N 34°15' W 119°16'0 0.0
2017-Dec-31 02:00N 34°15' W 119°16'0 0.0
2017-Dec-31 01:30N 34°15' W 119°16'0 0.0
2017-Dec-31 01:00N 34°15' W 119°16'0 0.0
2017-Dec-31 00:30N 34°15' W 119°16'4 7.1
2017-Dec-31 00:00N 34°13' W 119°19'917.8
2017-Dec-30 23:30N 34°07' W 119°28'611.4
2017-Dec-30 23:00N 34°03' W 119°33'0 1.0
2017-Dec-30 22:30N 34°03' W 119°33'0 0.1
2017-Dec-30 22:00N 34°03' W 119°33'0 0.0
2017-Dec-30 21:30N 34°03' W 119°33'0 0.0
2017-Dec-30 21:00N 34°03' W 119°33'0 0.0
2017-Dec-30 20:29N 34°03' W 119°33'0 0.0
2017-Dec-30 20:00N 34°03' W 119°33'0 0.1
2017-Dec-30 19:30N 34°03' W 119°33'4 8.4
2017-Dec-30 19:00N 34°05' W 119°29'917.9
2017-Dec-30 18:30N 34°11' W 119°21'510.7
2017-Dec-30 18:00N 34°15' W 119°16'0 0.0
2017-Dec-30 17:28N 34°15' W 119°16'0 0.0
2017-Dec-30 16:58N 34°15' W 119°16'0 0.0
2017-Dec-30 16:26N 34°15' W 119°16'0 0.0
2017-Dec-30 16:00N 34°15' W 119°16'0 0.0
2017-Dec-30 15:30N 34°15' W 119°16'0 0.0
2017-Dec-30 14:58N 34°15' W 119°16'0 0.0
2017-Dec-30 14:27N 34°15' W 119°16'0 0.0
2017-Dec-30 14:00N 34°15' W 119°16'0 0.0
2017-Dec-30 13:30N 34°15' W 119°16'0 0.0
2017-Dec-30 13:00N 34°15' W 119°16'0 0.0
2017-Dec-30 12:30N 34°15' W 119°16'0 0.0
2017-Dec-30 12:00N 34°15' W 119°16'0 0.0
2017-Dec-30 11:29N 34°15' W 119°16'0 0.0
2017-Dec-30 11:00N 34°15' W 119°16'0 0.0
2017-Dec-30 10:28N 34°15' W 119°16'0 0.0
2017-Dec-30 09:58N 34°15' W 119°16'0 0.0
2017-Dec-30 09:30N 34°15' W 119°16'0 0.0
2017-Dec-30 08:56N 34°15' W 119°16'0 0.0
2017-Dec-30 08:30N 34°15' W 119°16'0 0.0
2017-Dec-30 07:59N 34°15' W 119°16'0 0.0
2017-Dec-30 07:30N 34°15' W 119°16'0 0.0
2017-Dec-30 06:59N 34°15' W 119°16'0 0.0
2017-Dec-30 06:29N 34°15' W 119°16'0 0.0
2017-Dec-30 06:00N 34°15' W 119°16'0 0.0
2017-Dec-30 05:28N 34°15' W 119°16'0 0.0
2017-Dec-30 05:00N 34°15' W 119°16'0 0.0
2017-Dec-30 04:30N 34°15' W 119°16'0 0.0
2017-Dec-30 04:00N 34°15' W 119°16'0 0.0
2017-Dec-30 03:24N 34°15' W 119°16'0 0.0
2017-Dec-30 03:00N 34°15' W 119°16'0 0.0
2017-Dec-30 02:26N 34°15' W 119°16'0 0.0
2017-Dec-30 01:59N 34°15' W 119°16'0 0.0
2017-Dec-30 01:29N 34°15' W 119°16'0 0.0
2017-Dec-30 00:57N 34°15' W 119°16'0 0.0
2017-Dec-30 00:26N 34°15' W 119°16'1 2.8
2017-Dec-30 00:00N 34°14' W 119°17'917.4
2017-Dec-29 23:29N 34°08' W 119°26'816.3
2017-Dec-29 22:58N 34°03' W 119°33'0 0.0
2017-Dec-29 22:30N 34°03' W 119°33'0 0.1
2017-Dec-29 22:00N 34°03' W 119°33'0 0.0
2017-Dec-29 21:29N 34°03' W 119°33'0 0.1
2017-Dec-29 21:01N 34°03' W 119°33'0 0.1
2017-Dec-29 20:30N 34°03' W 119°33'0 0.1
2017-Dec-29 20:00N 34°03' W 119°33'1 1.9
2017-Dec-29 19:30N 34°03' W 119°32'510.7
2017-Dec-29 19:00N 34°07' W 119°27'815.4
2017-Dec-29 18:30N 34°12' W 119°20'5 9.3
2017-Dec-29 18:00N 34°15' W 119°16'0 0.0
2017-Dec-29 17:30N 34°15' W 119°16'0 0.0
2017-Dec-29 17:00N 34°15' W 119°16'0 0.0
2017-Dec-29 16:30N 34°15' W 119°16'0 0.0
2017-Dec-29 16:00N 34°15' W 119°16'0 0.0
2017-Dec-29 15:30N 34°15' W 119°16'0 0.0
2017-Dec-29 15:00N 34°15' W 119°16'0 0.0
2017-Dec-29 14:30N 34°15' W 119°16'0 0.0
2017-Dec-29 14:00N 34°15' W 119°16'0 0.0
2017-Dec-29 13:30N 34°15' W 119°16'0 0.0
2017-Dec-29 13:00N 34°15' W 119°16'0 0.0
2017-Dec-29 12:30N 34°15' W 119°16'0 0.0
2017-Dec-29 12:00N 34°15' W 119°16'0 0.0
2017-Dec-29 11:30N 34°15' W 119°16'0 0.0
2017-Dec-29 11:00N 34°15' W 119°16'0 0.0
2017-Dec-29 10:28N 34°15' W 119°16'0 0.0
2017-Dec-29 09:59N 34°15' W 119°16'0 0.0
2017-Dec-29 09:30N 34°15' W 119°16'0 0.0
2017-Dec-29 09:00N 34°15' W 119°16'0 0.0
2017-Dec-29 08:30N 34°15' W 119°16'0 0.0
2017-Dec-29 08:00N 34°15' W 119°16'0 0.0
2017-Dec-29 07:30N 34°15' W 119°16'0 0.0
2017-Dec-29 07:00N 34°15' W 119°16'0 0.0
2017-Dec-29 06:30N 34°15' W 119°16'0 0.0
2017-Dec-29 06:00N 34°15' W 119°16'0 0.0
2017-Dec-29 05:29N 34°15' W 119°16'0 0.0
2017-Dec-29 05:00N 34°15' W 119°16'0 0.0
2017-Dec-29 04:30N 34°15' W 119°16'0 0.0
2017-Dec-29 03:58N 34°15' W 119°16'0 0.0
2017-Dec-29 03:27N 34°15' W 119°16'0 0.0
2017-Dec-29 02:59N 34°15' W 119°16'0 0.0
2017-Dec-29 02:30N 34°15' W 119°16'0 0.0
2017-Dec-29 02:00N 34°15' W 119°16'0 0.0
2017-Dec-29 01:28N 34°15' W 119°16'  
Track history (hours):
 
Tides and Currents Weather Stations Pressure Air Temp Water Temp Dewpoint Dewpoint Depression Visibility Wind Speed Wind Dir Waves Ship Positions

Island Adventure

Owner: Superboat Inc, Ventura, CA. More information available from US FCC via Universal Licensing System and Coast Guard Vessel Documentation Center.

Last reported at 2018-Jan-08 01:20 UTC. Time now 2018-Feb-19 02:07 UTC.
Position N 34°15' W 119°16'.
Warning: this ship's position is 42 days out of date.

Length 20 m; draft 2.4 m.

Type: Passenger vessel. MMSI: 366899260.

Date/timePositionNaut miles runAvg speedWind from/ knotsBaromVisibWave heightAir tempDewpointWater temp
2018-Jan-08 01:20N 34°15' W 119°16'0 0.0
2018-Jan-08 01:00N 34°15' W 119°16'2 4.4
2018-Jan-08 00:30N 34°14' W 119°18'1019.0
2018-Jan-08 00:00N 34°07' W 119°27'714.0
2018-Jan-07 23:31N 34°03' W 119°33'2 4.4
2018-Jan-07 23:00N 34°03' W 119°36'5 9.4
2018-Jan-07 22:30N 34°01' W 119°41'0 0.2
2018-Jan-07 22:00N 34°01' W 119°41'0 0.1
2018-Jan-07 21:30N 34°01' W 119°41'0 0.1
2018-Jan-07 21:00N 34°01' W 119°41'0 0.0
2018-Jan-07 20:30N 34°01' W 119°41'0 0.1
2018-Jan-07 20:00N 34°01' W 119°41'0 0.0
2018-Jan-07 19:30N 34°01' W 119°41'3 6.4
2018-Jan-07 19:00N 34°03' W 119°38'4 7.3
2018-Jan-07 18:30N 34°03' W 119°33'4 8.5
2018-Jan-07 18:00N 34°06' W 119°30'1019.2
2018-Jan-07 17:29N 34°12' W 119°21'5 9.1
2018-Jan-07 16:59N 34°15' W 119°16'0 0.0
2018-Jan-07 16:30N 34°15' W 119°16'0 0.0
2018-Jan-07 15:59N 34°15' W 119°16'0 0.0
2018-Jan-07 15:30N 34°15' W 119°16'0 0.0
2018-Jan-07 15:00N 34°15' W 119°16'0 0.0
2018-Jan-07 14:30N 34°15' W 119°16'0 0.0
2018-Jan-07 14:00N 34°15' W 119°16'0 0.0
2018-Jan-07 13:29N 34°15' W 119°16'0 0.0
2018-Jan-07 12:54N 34°15' W 119°16'0 0.0
2018-Jan-07 12:30N 34°15' W 119°16'0 0.0
2018-Jan-07 11:58N 34°15' W 119°16'0 0.0
2018-Jan-07 11:30N 34°15' W 119°16'0 0.0
2018-Jan-07 10:59N 34°15' W 119°16'0 0.0
2018-Jan-07 10:28N 34°15' W 119°16'0 0.0
2018-Jan-07 10:00N 34°15' W 119°16'0 0.0
2018-Jan-07 09:28N 34°15' W 119°16'0 0.0
2018-Jan-07 08:58N 34°15' W 119°16'0 0.0
2018-Jan-07 08:30N 34°15' W 119°16'0 0.0
2018-Jan-07 07:56N 34°15' W 119°16'0 0.0
2018-Jan-07 07:28N 34°15' W 119°16'0 0.0
2018-Jan-07 06:59N 34°15' W 119°16'0 0.0
2018-Jan-07 06:30N 34°15' W 119°16'0 0.0
2018-Jan-07 05:56N 34°15' W 119°16'0 0.0
2018-Jan-07 05:26N 34°15' W 119°16'0 0.0
2018-Jan-07 04:59N 34°15' W 119°16'0 0.0
2018-Jan-07 04:29N 34°15' W 119°16'0 0.0
2018-Jan-07 03:59N 34°15' W 119°16'0 0.0
2018-Jan-07 03:30N 34°15' W 119°16'0 0.0
2018-Jan-07 03:00N 34°15' W 119°16'0 0.0
2018-Jan-07 02:30N 34°15' W 119°16'0 0.0
2018-Jan-07 01:59N 34°15' W 119°16'0 0.0
2018-Jan-07 01:30N 34°15' W 119°16'0 0.3
2018-Jan-07 00:30N 34°15' W 119°16'918.1
2018-Jan-07 00:00N 34°09' W 119°25'919.0
2018-Jan-06 23:30N 34°03' W 119°33'0 0.4
2018-Jan-06 23:00N 34°03' W 119°33'713.3
2018-Jan-06 22:30N 34°01' W 119°41'0 0.0
2018-Jan-06 22:00N 34°01' W 119°41'0 0.0
2018-Jan-06 21:29N 34°01' W 119°41'0 0.0
2018-Jan-06 21:00N 34°01' W 119°41'0 0.0
2018-Jan-06 20:30N 34°01' W 119°41'0 0.0
2018-Jan-06 20:00N 34°01' W 119°41'0 0.0
2018-Jan-06 19:30N 34°01' W 119°41'1 1.9
2018-Jan-06 19:00N 34°02' W 119°40'611.5
2018-Jan-06 18:30N 34°03' W 119°33'511.0
2018-Jan-06 18:00N 34°07' W 119°29'815.5
2018-Jan-06 17:31N 34°12' W 119°21'510.7
2018-Jan-06 17:00N 34°15' W 119°16'0 0.0
2018-Jan-06 16:30N 34°15' W 119°16'0 0.1
2018-Jan-06 16:00N 34°15' W 119°16'0 0.1
2018-Jan-06 15:30N 34°15' W 119°16'0 0.0
2018-Jan-06 15:00N 34°15' W 119°16'0 0.0
2018-Jan-06 14:29N 34°15' W 119°16'0 0.0
2018-Jan-06 14:00N 34°15' W 119°16'0 0.0
2018-Jan-06 13:28N 34°15' W 119°16'0 0.0
2018-Jan-06 12:55N 34°15' W 119°16'0 0.0
2018-Jan-06 12:28N 34°15' W 119°16'0 0.0
2018-Jan-06 12:00N 34°15' W 119°16'0 0.0
2018-Jan-06 11:30N 34°15' W 119°16'0 0.0
2018-Jan-06 10:58N 34°15' W 119°16'0 0.0
2018-Jan-06 10:29N 34°15' W 119°16'0 0.0
2018-Jan-06 09:59N 34°15' W 119°16'0 0.0
2018-Jan-06 09:30N 34°15' W 119°16'0 0.0
2018-Jan-06 09:00N 34°15' W 119°16'0 0.0
2018-Jan-06 08:30N 34°15' W 119°16'0 0.0
2018-Jan-06 08:00N 34°15' W 119°16'0 0.0
2018-Jan-06 07:25N 34°15' W 119°16'0 0.0
2018-Jan-06 06:58N 34°15' W 119°16'0 0.0
2018-Jan-06 06:30N 34°15' W 119°16'0 0.0
2018-Jan-06 06:00N 34°15' W 119°16'0 0.0
2018-Jan-06 05:30N 34°15' W 119°16'0 0.0
2018-Jan-06 04:59N 34°15' W 119°16'0 0.0
2018-Jan-06 04:30N 34°15' W 119°16'0 0.0
2018-Jan-06 04:00N 34°15' W 119°16'0 0.0
2018-Jan-06 03:30N 34°15' W 119°16'0 0.0
2018-Jan-06 03:00N 34°15' W 119°16'0 0.0
2018-Jan-06 02:28N 34°15' W 119°16'0 0.0
2018-Jan-06 02:00N 34°15' W 119°16'0 0.0
2018-Jan-06 01:30N 34°15' W 119°16'0 0.0
2018-Jan-06 01:00N 34°15' W 119°16'610.7
2018-Jan-06 00:27N 34°11' W 119°21'818.6
2018-Jan-06 00:00N 34°05' W 119°29'4 8.3
2018-Jan-05 23:30N 34°03' W 119°33'2 3.2
2018-Jan-05 23:00N 34°03' W 119°35'611.2
2018-Jan-05 22:30N 34°01' W 119°41'0 0.0
2018-Jan-05 21:59N 34°01' W 119°41'0 0.0
2018-Jan-05 21:30N 34°01' W 119°41'0 0.0
2018-Jan-05 20:59N 34°01' W 119°41'0 0.0
2018-Jan-05 20:30N 34°01' W 119°41'0 0.0
2018-Jan-05 20:00N 34°01' W 119°41'0 0.1
2018-Jan-05 19:30N 34°01' W 119°41'713.3
2018-Jan-05 19:00N 34°03' W 119°33'4 7.3
2018-Jan-05 18:30N 34°04' W 119°29'815.3
2018-Jan-05 17:59N 34°08' W 119°21'4 9.2
2018-Jan-05 17:30N 34°13' W 119°19'3 6.5
2018-Jan-05 16:58N 34°15' W 119°16'0 0.0
2018-Jan-05 16:29N 34°15' W 119°16'0 0.0
2018-Jan-05 16:00N 34°15' W 119°16'0 0.0
2018-Jan-05 15:30N 34°15' W 119°16'0 0.0
2018-Jan-05 15:00N 34°15' W 119°16'0 0.0
2018-Jan-05 14:30N 34°15' W 119°16'0 0.0
2018-Jan-05 14:00N 34°15' W 119°16'0 0.0
2018-Jan-05 13:29N 34°15' W 119°16'0 0.0
2018-Jan-05 12:57N 34°15' W 119°16'0 0.0
2018-Jan-05 12:30N 34°15' W 119°16'0 0.0
2018-Jan-05 12:00N 34°15' W 119°16'0 0.0
2018-Jan-05 11:30N 34°15' W 119°16'0 0.0
2018-Jan-05 10:51N 34°15' W 119°16'0 0.0
2018-Jan-05 10:30N 34°15' W 119°16'0 0.0
2018-Jan-05 10:01N 34°15' W 119°16'0 0.0
2018-Jan-05 09:30N 34°15' W 119°16'0 0.0
2018-Jan-05 09:01N 34°15' W 119°16'0 0.0
2018-Jan-05 08:31N 34°15' W 119°16'0 0.0
2018-Jan-05 08:00N 34°15' W 119°16'0 0.0
2018-Jan-05 07:30N 34°15' W 119°16'0 0.0
2018-Jan-05 07:00N 34°15' W 119°16'0 0.0
2018-Jan-05 06:29N 34°15' W 119°16'0 0.0
2018-Jan-05 05:58N 34°15' W 119°16'0 0.0
2018-Jan-05 05:30N 34°15' W 119°16'0 0.0
2018-Jan-05 05:01N 34°15' W 119°16'0 0.0
2018-Jan-05 04:30N 34°15' W 119°16'0 0.0
2018-Jan-05 04:00N 34°15' W 119°16'0 0.0
2018-Jan-05 03:30N 34°15' W 119°16'0 0.0
2018-Jan-05 02:59N 34°15' W 119°16'0 0.0
2018-Jan-05 02:30N 34°15' W 119°16'0 0.0
2018-Jan-05 02:00N 34°15' W 119°16'0 0.0
2018-Jan-05 01:30N 34°15' W 119°16'0 0.0
2018-Jan-05 01:00N 34°15' W 119°16'0 0.0
2018-Jan-05 00:27N 34°15' W 119°16'0 0.0
2018-Jan-04 23:57N 34°15' W 119°16'0 0.0
2018-Jan-04 23:27N 34°15' W 119°16'0 0.0
2018-Jan-04 22:53N 34°15' W 119°16'0 0.0
2018-Jan-04 22:30N 34°15' W 119°16'0 0.0
2018-Jan-04 21:57N 34°15' W 119°16'0 0.0
2018-Jan-04 21:26N 34°15' W 119°16'0 0.0
2018-Jan-04 21:00N 34°15' W 119°16'0 0.0
2018-Jan-04 20:30N 34°15' W 119°16'0 0.0
2018-Jan-04 20:00N 34°15' W 119°16'0 0.0
2018-Jan-04 19:29N 34°15' W 119°16'0 0.0
2018-Jan-04 19:00N 34°15' W 119°16'0 0.0
2018-Jan-04 18:30N 34°15' W 119°16'0 0.0
2018-Jan-04 17:59N 34°15' W 119°16'0 0.0
2018-Jan-04 17:29N 34°15' W 119°16'0 0.0
2018-Jan-04 16:59N 34°15' W 119°16'0 0.0
2018-Jan-04 16:29N 34°15' W 119°16'0 0.0
2018-Jan-04 15:59N 34°15' W 119°16'0 0.0
2018-Jan-04 15:29N 34°15' W 119°16'0 0.0
2018-Jan-04 14:59N 34°15' W 119°16'0 0.0
2018-Jan-04 14:30N 34°15' W 119°16'0 0.0
2018-Jan-04 14:00N 34°15' W 119°16'0 0.0
2018-Jan-04 13:29N 34°15' W 119°16'0 0.0
2018-Jan-04 13:01N 34°15' W 119°16'0 0.0
2018-Jan-04 12:29N 34°15' W 119°16'0 0.0
2018-Jan-04 11:57N 34°15' W 119°16'0 0.0
2018-Jan-04 11:29N 34°15' W 119°16'0 0.0
2018-Jan-04 11:00N 34°15' W 119°16'0 0.0
2018-Jan-04 10:27N 34°15' W 119°16'0 0.0
2018-Jan-04 09:58N 34°15' W 119°16'0 0.0
2018-Jan-04 09:30N 34°15' W 119°16'0 0.0
2018-Jan-04 08:59N 34°15' W 119°16'0 0.0
2018-Jan-04 08:27N 34°15' W 119°16'0 0.0
2018-Jan-04 08:00N 34°15' W 119°16'0 0.0
2018-Jan-04 07:22N 34°15' W 119°16'0 0.0
2018-Jan-04 07:00N 34°15' W 119°16'0 0.0
2018-Jan-04 06:27N 34°15' W 119°16'0 0.0
2018-Jan-04 05:58N 34°15' W 119°16'0 0.0
2018-Jan-04 05:30N 34°15' W 119°16'0 0.0
2018-Jan-04 05:00N 34°15' W 119°16'0 0.0
2018-Jan-04 04:29N 34°15' W 119°16'0 0.0
2018-Jan-04 04:00N 34°15' W 119°16'0 0.0
2018-Jan-04 03:30N 34°15' W 119°16'0 0.0
2018-Jan-04 03:00N 34°15' W 119°16'0 0.0
2018-Jan-04 02:30N 34°15' W 119°16'0 0.0
2018-Jan-04 02:00N 34°15' W 119°16'0 0.0
2018-Jan-04 01:29N 34°15' W 119°16'0 0.2
2018-Jan-04 01:00N 34°15' W 119°16'815.4
2018-Jan-04 00:30N 34°11' W 119°24'815.0
2018-Jan-04 00:00N 34°07' W 119°31'3 6.1
2018-Jan-03 23:30N 34°04' W 119°33'1 1.7
2018-Jan-03 23:00N 34°03' W 119°33'713.3
2018-Jan-03 22:30N 34°01' W 119°41'0 0.1
2018-Jan-03 22:00N 34°01' W 119°41'0 0.0
2018-Jan-03 21:30N 34°01' W 119°41'1 1.5
2018-Jan-03 20:58N 34°02' W 119°40'0 0.3
2018-Jan-03 20:28N 34°02' W 119°41'0 0.3
2018-Jan-03 20:00N 34°02' W 119°41'0 0.4
2018-Jan-03 19:30N 34°02' W 119°41'510.0
2018-Jan-03 19:00N 34°04' W 119°35'2 3.7
2018-Jan-03 18:30N 34°03' W 119°33'510.1
2018-Jan-03 18:00N 34°07' W 119°29'816.4
2018-Jan-03 17:31N 34°12' W 119°21'510.4
2018-Jan-03 17:00N 34°15' W 119°16'0 0.0
2018-Jan-03 16:29N 34°15' W 119°16'0 0.0
2018-Jan-03 16:00N 34°15' W 119°16'0 0.0
2018-Jan-03 15:29N 34°15' W 119°16'0 0.0
2018-Jan-03 15:00N 34°15' W 119°16'0 0.0
2018-Jan-03 14:31N 34°15' W 119°16'0 0.0
2018-Jan-03 14:00N 34°15' W 119°16'0 0.0
2018-Jan-03 13:30N 34°15' W 119°16'0 0.0
2018-Jan-03 13:00N 34°15' W 119°16'0 0.0
2018-Jan-03 12:31N 34°15' W 119°16'0 0.0
2018-Jan-03 12:01N 34°15' W 119°16'0 0.0
2018-Jan-03 11:30N 34°15' W 119°16'0 0.0
2018-Jan-03 11:00N 34°15' W 119°16'0 0.0
2018-Jan-03 10:31N 34°15' W 119°16'0 0.0
2018-Jan-03 09:59N 34°15' W 119°16'0 0.0
2018-Jan-03 09:27N 34°15' W 119°16'0 0.0
2018-Jan-03 08:59N 34°15' W 119°16'0 0.0
2018-Jan-03 08:30N 34°15' W 119°16'0 0.0
2018-Jan-03 07:57N 34°15' W 119°16'0 0.0
2018-Jan-03 07:31N 34°15' W 119°16'0 0.0
2018-Jan-03 07:00N 34°15' W 119°16'0 0.0
2018-Jan-03 06:31N 34°15' W 119°16'0 0.0
2018-Jan-03 06:00N 34°15' W 119°16'0 0.0
2018-Jan-03 05:28N 34°15' W 119°16'0 0.0
2018-Jan-03 05:00N 34°15' W 119°16'0 0.0
2018-Jan-03 04:30N 34°15' W 119°16'0 0.0
2018-Jan-03 03:59N 34°15' W 119°16'0 0.0
2018-Jan-03 03:30N 34°15' W 119°16'0 0.0
2018-Jan-03 03:01N 34°15' W 119°16'0 0.0
2018-Jan-03 02:30N 34°15' W 119°16'0 0.0
2018-Jan-03 02:01N 34°15' W 119°16'0 0.0
2018-Jan-03 01:31N 34°15' W 119°16'0 0.0
2018-Jan-03 01:00N 34°15' W 119°16'2 3.2
2018-Jan-03 00:30N 34°14' W 119°17'918.1
2018-Jan-03 00:00N 34°08' W 119°26'816.1
2018-Jan-02 23:30N 34°03' W 119°33'2 4.1
2018-Jan-02 23:00N 34°03' W 119°36'5 9.1
2018-Jan-02 22:29N 34°01' W 119°41'0 0.1
2018-Jan-02 22:00N 34°01' W 119°41'0 0.0
2018-Jan-02 21:30N 34°01' W 119°41'0 0.0
2018-Jan-02 21:00N 34°01' W 119°41'0 0.0
2018-Jan-02 20:30N 34°01' W 119°41'0 0.0
2018-Jan-02 20:00N 34°01' W 119°41'0 0.0
2018-Jan-02 19:30N 34°01' W 119°41'0 0.9
2018-Jan-02 19:01N 34°01' W 119°41'612.3
2018-Jan-02 18:30N 34°03' W 119°33'916.0
2018-Jan-02 17:58N 34°09' W 119°25'611.9
2018-Jan-02 17:30N 34°12' W 119°20'4 8.6
2018-Jan-02 16:59N 34°15' W 119°16'0 0.0
2018-Jan-02 16:30N 34°15' W 119°16'0 0.0
2018-Jan-02 15:58N 34°15' W 119°16'0 0.0
2018-Jan-02 15:31N 34°15' W 119°16'0 0.0
2018-Jan-02 15:00N 34°15' W 119°16'0 0.0
2018-Jan-02 14:30N 34°15' W 119°16'0 0.0
2018-Jan-02 14:00N 34°15' W 119°16'0 0.0
2018-Jan-02 13:30N 34°15' W 119°16'0 0.0
2018-Jan-02 13:00N 34°15' W 119°16'0 0.0
2018-Jan-02 12:30N 34°15' W 119°16'0 0.0
2018-Jan-02 11:59N 34°15' W 119°16'0 0.0
2018-Jan-02 11:30N 34°15' W 119°16'0 0.0
2018-Jan-02 11:00N 34°15' W 119°16'0 0.0
2018-Jan-02 10:30N 34°15' W 119°16'0 0.0
2018-Jan-02 10:00N 34°15' W 119°16'0 0.0
2018-Jan-02 09:31N 34°15' W 119°16'0 0.0
2018-Jan-02 08:30N 34°15' W 119°16'0 0.0
2018-Jan-02 08:00N 34°15' W 119°16'0 0.0
2018-Jan-02 07:30N 34°15' W 119°16'0 0.0
2018-Jan-02 07:00N 34°15' W 119°16'0 0.0
2018-Jan-02 06:29N 34°15' W 119°16'0 0.0
2018-Jan-02 05:58N 34°15' W 119°16'0 0.0
2018-Jan-02 05:30N 34°15' W 119°16'0 0.0
2018-Jan-02 04:30N 34°15' W 119°16'0 0.0
2018-Jan-02 03:58N 34°15' W 119°16'0 0.0
2018-Jan-02 03:30N 34°15' W 119°16'0 0.0
2018-Jan-02 03:00N 34°15' W 119°16'0 0.0
2018-Jan-02 02:30N 34°15' W 119°16'0 0.0
2018-Jan-02 02:00N 34°15' W 119°16'0 0.0
2018-Jan-02 01:30N 34°15' W 119°16'0 0.1
2018-Jan-02 01:00N 34°15' W 119°16'713.8
2018-Jan-02 00:30N 34°11' W 119°23'918.0
2018-Jan-02 00:00N 34°05' W 119°31'3 5.7
2018-Jan-01 23:30N 34°03' W 119°33'2 4.8
2018-Jan-01 23:00N 34°03' W 119°36'4 8.7
2018-Jan-01 22:30N 34°01' W 119°41'815.6
2018-Jan-01 22:00N 34°05' W 119°49'2 4.0
2018-Jan-01 21:27N 34°04' W 119°52'2 4.7
2018-Jan-01 20:58N 34°03' W 119°49'2 4.2
2018-Jan-01 20:30N 34°03' W 119°47'2 4.7
2018-Jan-01 20:00N 34°03' W 119°44'2 4.0
2018-Jan-01 19:30N 34°02' W 119°42'3 5.2
2018-Jan-01 19:00N 34°01' W 119°39'5 9.5
2018-Jan-01 18:30N 34°03' W 119°33'611.4
2018-Jan-01 18:00N 34°05' W 119°27'714.8
2018-Jan-01 17:30N 34°11' W 119°22'6 2.3
2018-Jan-01 15:00N 34°15' W 119°16'0 0.0
2018-Jan-01 14:30N 34°15' W 119°16'0 0.0
2018-Jan-01 14:01N 34°15' W 119°16'0 0.0
2018-Jan-01 13:30N 34°15' W 119°16'0 0.0
2018-Jan-01 13:00N 34°15' W 119°16'0 0.0
2018-Jan-01 12:00N 34°15' W 119°16'0 0.0
2018-Jan-01 11:30N 34°15' W 119°16'0 0.0
2018-Jan-01 11:00N 34°15' W 119°16'0 0.0
2018-Jan-01 10:30N 34°15' W 119°16'0 0.0
2018-Jan-01 10:01N 34°15' W 119°16'0 0.0
2018-Jan-01 09:30N 34°15' W 119°16'0 0.0
2018-Jan-01 08:30N 34°15' W 119°16'0 0.0
2018-Jan-01 08:01N 34°15' W 119°16'0 0.0
2018-Jan-01 07:30N 34°15' W 119°16'0 0.0
2018-Jan-01 07:01N 34°15' W 119°16'0 0.0
2018-Jan-01 06:00N 34°15' W 119°16'0 0.0
2018-Jan-01 05:30N 34°15' W 119°16'0 0.0
2018-Jan-01 05:00N 34°15' W 119°16'0 0.0
2018-Jan-01 04:00N 34°15' W 119°16'0 0.0
2018-Jan-01 03:29N 34°15' W 119°16'0 0.0
2018-Jan-01 03:00N 34°15' W 119°16'0 0.0
2018-Jan-01 02:30N 34°15' W 119°16'0 0.0
2018-Jan-01 02:00N 34°15' W 119°16'0 0.0
2018-Jan-01 01:30N 34°15' W 119°16'0 0.0
2018-Jan-01 00:30N 34°15' W 119°16'19 5.3
2017-Dec-31 21:00N 34°03' W 119°33'0 0.0
2017-Dec-31 20:30N 34°03' W 119°33'0 0.1
2017-Dec-31 20:00N 34°03' W 119°33'3 5.9
2017-Dec-31 19:30N 34°06' W 119°33'4 8.6
2017-Dec-31 19:00N 34°07' W 119°28'918.1
2017-Dec-31 18:30N 34°12' W 119°19'4 7.4
2017-Dec-31 18:00N 34°15' W 119°16'0 0.0
2017-Dec-31 17:30N 34°15' W 119°16'0 0.0
2017-Dec-31 17:00N 34°15' W 119°16'0 0.0
2017-Dec-31 16:30N 34°15' W 119°16'0 0.0
2017-Dec-31 16:00N 34°15' W 119°16'0 0.0
2017-Dec-31 15:30N 34°15' W 119°16'0 0.0
2017-Dec-31 15:00N 34°15' W 119°16'0 0.0
2017-Dec-31 14:30N 34°15' W 119°16'0 0.0
2017-Dec-31 14:00N 34°15' W 119°16'0 0.0
2017-Dec-31 13:30N 34°15' W 119°16'0 0.0
2017-Dec-31 13:00N 34°15' W 119°16'0 0.0
2017-Dec-31 12:30N 34°15' W 119°16'0 0.0
2017-Dec-31 12:00N 34°15' W 119°16'0 0.0
2017-Dec-31 11:30N 34°15' W 119°16'0 0.0
2017-Dec-31 11:00N 34°15' W 119°16'0 0.0
2017-Dec-31 10:30N 34°15' W 119°16'0 0.0
2017-Dec-31 10:00N 34°15' W 119°16'0 0.0
2017-Dec-31 09:30N 34°15' W 119°16'0 0.0
2017-Dec-31 09:00N 34°15' W 119°16'0 0.0
2017-Dec-31 08:30N 34°15' W 119°16'0 0.0
2017-Dec-31 08:00N 34°15' W 119°16'0 0.0
2017-Dec-31 07:30N 34°15' W 119°16'0 0.0
2017-Dec-31 07:00N 34°15' W 119°16'0 0.0
2017-Dec-31 06:30N 34°15' W 119°16'0 0.0
2017-Dec-31 06:00N 34°15' W 119°16'0 0.0
2017-Dec-31 05:30N 34°15' W 119°16'0 0.0
2017-Dec-31 05:00N 34°15' W 119°16'0 0.0
2017-Dec-31 04:30N 34°15' W 119°16'0 0.0
2017-Dec-31 04:00N 34°15' W 119°16'0 0.0
2017-Dec-31 03:30N 34°15' W 119°16'0 0.0
2017-Dec-31 03:00N 34°15' W 119°16'0 0.0
2017-Dec-31 02:30N 34°15' W 119°16'0 0.0
2017-Dec-31 02:00N 34°15' W 119°16'0 0.0
2017-Dec-31 01:30N 34°15' W 119°16'0 0.0
2017-Dec-31 01:00N 34°15' W 119°16'0 0.0
2017-Dec-31 00:30N 34°15' W 119°16'4 7.1
2017-Dec-31 00:00N 34°13' W 119°19'917.8
2017-Dec-30 23:30N 34°07' W 119°28'611.4
2017-Dec-30 23:00N 34°03' W 119°33'0 1.0
2017-Dec-30 22:30N 34°03' W 119°33'0 0.1
2017-Dec-30 22:00N 34°03' W 119°33'0 0.0
2017-Dec-30 21:30N 34°03' W 119°33'0 0.0
2017-Dec-30 21:00N 34°03' W 119°33'0 0.0
2017-Dec-30 20:29N 34°03' W 119°33'0 0.0
2017-Dec-30 20:00N 34°03' W 119°33'0 0.1
2017-Dec-30 19:30N 34°03' W 119°33'4 8.4
2017-Dec-30 19:00N 34°05' W 119°29'917.9
2017-Dec-30 18:30N 34°11' W 119°21'510.7
2017-Dec-30 18:00N 34°15' W 119°16'0 0.0
2017-Dec-30 17:28N 34°15' W 119°16'0 0.0
2017-Dec-30 16:58N 34°15' W 119°16'0 0.0
2017-Dec-30 16:26N 34°15' W 119°16'0 0.0
2017-Dec-30 16:00N 34°15' W 119°16'0 0.0
2017-Dec-30 15:30N 34°15' W 119°16'0 0.0
2017-Dec-30 14:58N 34°15' W 119°16'0 0.0
2017-Dec-30 14:27N 34°15' W 119°16'0 0.0
2017-Dec-30 14:00N 34°15' W 119°16'0 0.0
2017-Dec-30 13:30N 34°15' W 119°16'0 0.0
2017-Dec-30 13:00N 34°15' W 119°16'0 0.0
2017-Dec-30 12:30N 34°15' W 119°16'0 0.0
2017-Dec-30 12:00N 34°15' W 119°16'0 0.0
2017-Dec-30 11:29N 34°15' W 119°16'0 0.0
2017-Dec-30 11:00N 34°15' W 119°16'0 0.0
2017-Dec-30 10:28N 34°15' W 119°16'0 0.0
2017-Dec-30 09:58N 34°15' W 119°16'0 0.0
2017-Dec-30 09:30N 34°15' W 119°16'0 0.0
2017-Dec-30 08:56N 34°15' W 119°16'0 0.0
2017-Dec-30 08:30N 34°15' W 119°16'0 0.0
2017-Dec-30 07:59N 34°15' W 119°16'0 0.0
2017-Dec-30 07:30N 34°15' W 119°16'0 0.0
2017-Dec-30 06:59N 34°15' W 119°16'0 0.0
2017-Dec-30 06:29N 34°15' W 119°16'0 0.0
2017-Dec-30 06:00N 34°15' W 119°16'0 0.0
2017-Dec-30 05:28N 34°15' W 119°16'0 0.0
2017-Dec-30 05:00N 34°15' W 119°16'0 0.0
2017-Dec-30 04:30N 34°15' W 119°16'0 0.0
2017-Dec-30 04:00N 34°15' W 119°16'0 0.0
2017-Dec-30 03:24N 34°15' W 119°16'0 0.0
2017-Dec-30 03:00N 34°15' W 119°16'0 0.0
2017-Dec-30 02:26N 34°15' W 119°16'0 0.0
2017-Dec-30 01:59N 34°15' W 119°16'0 0.0
2017-Dec-30 01:29N 34°15' W 119°16'0 0.0
2017-Dec-30 00:57N 34°15' W 119°16'0 0.0
2017-Dec-30 00:26N 34°15' W 119°16'1 2.8
2017-Dec-30 00:00N 34°14' W 119°17'917.4
2017-Dec-29 23:29N 34°08' W 119°26'816.3
2017-Dec-29 22:58N 34°03' W 119°33'0 0.0
2017-Dec-29 22:30N 34°03' W 119°33'0 0.1
2017-Dec-29 22:00N 34°03' W 119°33'0 0.0
2017-Dec-29 21:29N 34°03' W 119°33'0 0.1
2017-Dec-29 21:01N 34°03' W 119°33'0 0.1
2017-Dec-29 20:30N 34°03' W 119°33'0 0.1
2017-Dec-29 20:00N 34°03' W 119°33'1 1.9
2017-Dec-29 19:30N 34°03' W 119°32'510.7
2017-Dec-29 19:00N 34°07' W 119°27'815.4
2017-Dec-29 18:30N 34°12' W 119°20'5 9.3
2017-Dec-29 18:00N 34°15' W 119°16'0 0.0
2017-Dec-29 17:30N 34°15' W 119°16'0 0.0
2017-Dec-29 17:00N 34°15' W 119°16'0 0.0
2017-Dec-29 16:30N 34°15' W 119°16'0 0.0
2017-Dec-29 16:00N 34°15' W 119°16'0 0.0
2017-Dec-29 15:30N 34°15' W 119°16'0 0.0
2017-Dec-29 15:00N 34°15' W 119°16'0 0.0
2017-Dec-29 14:30N 34°15' W 119°16'0 0.0
2017-Dec-29 14:00N 34°15' W 119°16'0 0.0
2017-Dec-29 13:30N 34°15' W 119°16'0 0.0
2017-Dec-29 13:00N 34°15' W 119°16'0 0.0
2017-Dec-29 12:30N 34°15' W 119°16'0 0.0
2017-Dec-29 12:00N 34°15' W 119°16'0 0.0
2017-Dec-29 11:30N 34°15' W 119°16'0 0.0
2017-Dec-29 11:00N 34°15' W 119°16'0 0.0
2017-Dec-29 10:28N 34°15' W 119°16'0 0.0
2017-Dec-29 09:59N 34°15' W 119°16'0 0.0
2017-Dec-29 09:30N 34°15' W 119°16'0 0.0
2017-Dec-29 09:00N 34°15' W 119°16'0 0.0
2017-Dec-29 08:30N 34°15' W 119°16'0 0.0
2017-Dec-29 08:00N 34°15' W 119°16'0 0.0
2017-Dec-29 07:30N 34°15' W 119°16'0 0.0
2017-Dec-29 07:00N 34°15' W 119°16'0 0.0
2017-Dec-29 06:30N 34°15' W 119°16'0 0.0
2017-Dec-29 06:00N 34°15' W 119°16'0 0.0
2017-Dec-29 05:29N 34°15' W 119°16'0 0.0
2017-Dec-29 05:00N 34°15' W 119°16'0 0.0
2017-Dec-29 04:30N 34°15' W 119°16'0 0.0
2017-Dec-29 03:58N 34°15' W 119°16'0 0.0
2017-Dec-29 03:27N 34°15' W 119°16'0 0.0
2017-Dec-29 02:59N 34°15' W 119°16'0 0.0
2017-Dec-29 02:30N 34°15' W 119°16'0 0.0
2017-Dec-29 02:00N 34°15' W 119°16'0 0.0
2017-Dec-29 01:28N 34°15' W 119°16'  

Dump ship's entire track history